Paradox, Colorado
Current Conditions -  °F | °C
As of 10:15 AM on Friday 28 Nov 2014 (Local Time) from KAIB Reporting Station
Clear Clear  
Wind Chill: 43°   Ceiling: Unl
Heat Index: 43°   Visibility: 10mi
Dew Point: 23°   Wind: 0mph
Humidity: 46%   Direction: NA
Pressure: 30.26"   Gusts: NA
Location:  38.37°N, 108.96°W
Report Text: KAIB 281715Z AUTO 00000KT 10SM CLR 06/M05 A3026 RMK AO2
Loading
Personal Weather Stations






























Interactive Weather Map New forecast layout! Learn more

10-Day Weather Forecast

Advertisements
Track Severe Weather on mobile